Time;durP1;ratioP1;P1;durP2;ratioP2;P2;SDS_P1;SDS_P2;PMS_P1;PMS_P2;Temp;Humidity;BMP_temperature;BMP_pressure;BME280_temperature;BME280_humidity;BME280_pressure;Samples;Min_cycle;Max_cycle;Signal;HPM_P1;HPM_P2
2023/07/16 00:00:35;;;;;;;3.83;2.85;;;20.60;99.90;;;;;;4179682;28;20037;-60
2023/07/16 00:02:38;;;;;;;2.75;2.50;;;20.50;99.90;;;;;;4178772;28;20071;-61
2023/07/16 00:04:39;;;;;;;4.50;2.97;;;20.60;99.90;;;;;;4179980;28;20064;-61
2023/07/16 00:06:40;;;;;;;4.47;3.30;;;20.60;99.90;;;;;;4178681;28;20029;-61
2023/07/16 00:08:41;;;;;;;4.32;2.80;;;20.50;99.90;;;;;;4180460;28;20033;-62
2023/07/16 00:10:43;;;;;;;4.97;2.95;;;20.40;99.90;;;;;;4178416;28;20094;-61
2023/07/16 00:12:44;;;;;;;4.97;2.67;;;20.30;99.90;;;;;;4179145;28;21762;-61
2023/07/16 00:14:45;;;;;;;8.60;4.03;;;20.30;99.90;;;;;;4177435;28;20049;-62
2023/07/16 00:16:46;;;;;;;3.97;3.05;;;20.20;99.90;;;;;;4179117;28;20033;-61
2023/07/16 00:18:47;;;;;;;4.85;2.65;;;20.10;99.90;;;;;;4178404;28;20025;-61
2023/07/16 00:20:48;;;;;;;3.15;2.85;;;20.10;99.90;;;;;;4179604;28;20362;-62
2023/07/16 00:22:50;;;;;;;4.00;3.10;;;20.10;99.90;;;;;;4178024;28;20307;-61
2023/07/16 00:24:52;;;;;;;3.95;2.92;;;20.10;99.90;;;;;;4179047;28;20102;-62
2023/07/16 00:26:53;;;;;;;4.90;3.10;;;20.00;99.90;;;;;;4177367;28;20032;-61
2023/07/16 00:28:54;;;;;;;3.67;3.30;;;20.00;99.90;;;;;;4178734;28;20025;-62
2023/07/16 00:30:55;;;;;;;4.55;2.80;;;19.90;99.90;;;;;;4178685;28;20063;-60
2023/07/16 00:32:57;;;;;;;4.45;2.95;;;19.90;99.90;;;;;;4178119;28;20153;-60
2023/07/16 00:34:58;;;;;;;3.92;2.88;;;19.90;99.90;;;;;;4179463;28;20071;-60
2023/07/16 00:37:01;;;;;;;4.55;3.15;;;19.90;99.90;;;;;;4177754;28;20106;-62
2023/07/16 00:39:02;;;;;;;6.95;3.50;;;19.80;99.90;;;;;;4179804;28;20355;-61
2023/07/16 00:41:03;;;;;;;7.90;4.43;;;19.70;99.90;;;;;;4178144;28;20033;-61
2023/07/16 00:43:04;;;;;;;7.20;4.90;;;19.70;99.90;;;;;;4179367;28;20532;-60
2023/07/16 00:45:13;;;;;;;5.28;3.97;;;19.50;99.90;;;;;;4178239;28;20436;-61
2023/07/16 00:47:14;;;;;;;5.15;4.28;;;19.30;99.90;;;;;;4178844;28;20029;-61
2023/07/16 00:49:16;;;;;;;5.53;4.50;;;19.10;99.90;;;;;;4178056;28;20048;-62
2023/07/16 00:51:18;;;;;;;6.00;4.25;;;19.00;99.90;;;;;;4179223;28;20052;-60
2023/07/16 00:53:20;;;;;;;7.03;4.00;;;18.90;99.90;;;;;;4177060;28;20036;-60
2023/07/16 00:55:21;;;;;;;7.72;4.05;;;18.70;99.90;;;;;;4178800;28;20021;-61
2023/07/16 00:57:23;;;;;;;6.90;3.70;;;18.70;99.90;;;;;;4178273;28;20037;-61
2023/07/16 00:59:24;;;;;;;6.75;3.85;;;18.60;99.90;;;;;;4178067;28;20087;-62
2023/07/16 01:01:26;;;;;;;4.97;3.72;;;18.50;99.90;;;;;;4178493;28;20037;-61
2023/07/16 01:03:27;;;;;;;8.20;3.85;;;18.50;99.90;;;;;;4177743;28;20037;-61
2023/07/16 01:05:43;;;;;;;7.13;4.22;;;18.40;99.90;;;;;;4178104;28;20622;-61
2023/07/16 01:07:59;;;;;;;7.35;3.95;;;18.40;99.90;;;;;;4178262;28;20033;-66
2023/07/16 01:10:01;;;;;;;5.47;3.85;;;18.50;99.90;;;;;;4178578;28;20041;-60
2023/07/16 01:12:04;;;;;;;4.72;3.70;;;18.40;99.90;;;;;;4177521;28;20049;-61
2023/07/16 01:14:08;;;;;;;10.98;5.20;;;18.30;99.90;;;;;;4178672;28;20067;-62
2023/07/16 01:16:22;;;;;;;7.28;4.82;;;18.30;99.90;;;;;;4176641;28;20101;-62
2023/07/16 01:18:23;;;;;;;5.25;4.15;;;18.30;99.90;;;;;;4177855;28;20037;-61
2023/07/16 01:20:25;;;;;;;7.22;4.57;;;18.30;99.90;;;;;;4159255;28;20064;-60
2023/07/16 01:22:40;;;;;;;6.13;4.82;;;18.30;99.90;;;;;;4178635;28;20028;-60
2023/07/16 01:24:52;;;;;;;6.10;4.72;;;18.20;99.90;;;;;;4176305;28;20511;-61
2023/07/16 01:27:26;;;;;;;8.70;5.25;;;18.20;99.90;;;;;;4178587;28;20033;-60
2023/07/16 01:29:34;;;;;;;7.20;5.00;;;18.10;99.90;;;;;;4177242;28;20479;-61
2023/07/16 01:31:36;;;;;;;7.78;4.63;;;18.00;99.90;;;;;;4177972;28;20809;-60
2023/07/16 01:33:40;;;;;;;11.65;5.03;;;17.90;99.90;;;;;;4177238;28;20049;-61
2023/07/16 01:35:42;;;;;;;7.30;4.68;;;17.90;99.90;;;;;;4178518;28;20017;-61
2023/07/16 01:37:44;;;;;;;8.27;5.00;;;17.90;99.90;;;;;;4176159;28;20037;-61
2023/07/16 01:39:45;;;;;;;8.02;5.38;;;17.90;99.90;;;;;;4160437;28;20037;-60
2023/07/16 01:41:46;;;;;;;6.63;4.60;;;17.80;99.90;;;;;;4177326;28;20025;-61
2023/07/16 01:43:47;;;;;;;14.02;5.30;;;17.70;99.90;;;;;;4178329;28;20074;-61
2023/07/16 01:45:49;;;;;;;7.00;5.07;;;17.70;99.90;;;;;;4177188;28;20029;-60
2023/07/16 01:48:20;;;;;;;10.95;5.57;;;17.70;99.90;;;;;;4177692;28;20028;-65
2023/07/16 01:50:22;;;;;;;6.43;4.57;;;17.70;99.90;;;;;;4177023;28;20045;-61
2023/07/16 01:52:23;;;;;;;10.30;5.25;;;17.60;99.90;;;;;;4177984;28;20066;-61
2023/07/16 01:54:24;;;;;;;6.88;4.97;;;17.50;99.90;;;;;;4177086;28;20443;-61
2023/07/16 01:56:25;;;;;;;8.15;4.93;;;17.60;99.90;;;;;;4178225;28;20109;-61
2023/07/16 01:58:26;;;;;;;8.18;5.78;;;17.50;99.90;;;;;;4176972;28;20041;-61
2023/07/16 02:00:27;;;;;;;7.05;5.63;;;17.50;99.90;;;;;;4178065;28;20110;-62
2023/07/16 02:02:28;;;;;;;6.70;5.40;;;17.50;99.90;;;;;;4177035;28;20025;-61
2023/07/16 02:04:29;;;;;;;11.40;5.55;;;17.50;99.90;;;;;;4177257;28;20087;-60
2023/07/16 02:06:31;;;;;;;6.95;5.25;;;17.50;99.90;;;;;;4176564;28;20098;-60
2023/07/16 02:08:32;;;;;;;8.23;4.88;;;17.50;99.90;;;;;;4177671;28;20016;-62
2023/07/16 02:10:33;;;;;;;6.80;4.45;;;17.50;99.90;;;;;;4177765;28;21066;-61
2023/07/16 02:12:34;;;;;;;9.73;5.40;;;17.60;99.90;;;;;;4158963;28;20095;-59
2023/07/16 02:14:35;;;;;;;7.88;5.30;;;17.60;99.90;;;;;;4177710;28;20404;-62
2023/07/16 02:16:37;;;;;;;6.65;4.95;;;17.70;99.90;;;;;;4176029;28;20025;-61
2023/07/16 02:18:38;;;;;;;6.57;4.63;;;17.70;99.90;;;;;;4177067;28;20040;-61
2023/07/16 02:20:39;;;;;;;11.48;4.80;;;17.70;99.90;;;;;;4176582;28;20033;-61
2023/07/16 02:22:40;;;;;;;6.15;4.40;;;17.80;99.90;;;;;;4177945;28;20025;-62
2023/07/16 02:24:41;;;;;;;7.25;3.92;;;17.80;99.90;;;;;;4176792;28;20505;-61
2023/07/16 02:26:43;;;;;;;8.00;4.70;;;17.80;99.90;;;;;;4177792;28;20083;-61
2023/07/16 02:28:44;;;;;;;6.00;4.20;;;17.80;99.90;;;;;;4176220;28;20475;-61
2023/07/16 02:30:45;;;;;;;7.38;5.05;;;17.70;99.90;;;;;;4177758;28;20090;-61
2023/07/16 02:32:46;;;;;;;7.90;4.45;;;17.70;99.90;;;;;;4176307;28;20083;-60
2023/07/16 02:34:47;;;;;;;6.75;4.55;;;17.70;99.90;;;;;;4176823;28;20099;-60
2023/07/16 02:36:48;;;;;;;6.45;4.28;;;17.70;99.90;;;;;;4159271;28;20017;-61
2023/07/16 02:38:49;;;;;;;3.72;3.35;;;17.70;99.90;;;;;;4176478;28;20037;-61
2023/07/16 02:40:50;;;;;;;7.57;4.63;;;17.70;99.90;;;;;;4177425;28;20028;-62
2023/07/16 02:42:51;;;;;;;7.97;4.32;;;17.70;99.90;;;;;;4176300;28;20037;-61
2023/07/16 02:44:53;;;;;;;5.75;3.97;;;17.60;99.90;;;;;;4177380;28;20428;-61
2023/07/16 02:46:54;;;;;;;9.07;4.93;;;17.50;99.90;;;;;;4176341;28;20029;-60
2023/07/16 02:48:55;;;;;;;8.95;4.72;;;17.40;99.90;;;;;;4161185;28;20071;-60
2023/07/16 02:50:56;;;;;;;10.57;4.05;;;17.50;99.90;;;;;;4179856;28;20079;-60
2023/07/16 02:52:57;;;;;;;9.75;4.53;;;17.50;99.90;;;;;;4180954;28;20029;-60
2023/07/16 02:54:58;;;;;;;7.55;3.72;;;17.60;99.90;;;;;;4179897;28;20021;-62
2023/07/16 02:56:59;;;;;;;8.80;4.63;;;17.60;99.90;;;;;;4180845;28;21319;-60
2023/07/16 02:59:00;;;;;;;4.82;4.18;;;17.70;99.90;;;;;;4179745;28;20036;-60
2023/07/16 03:01:02;;;;;;;6.35;4.53;;;17.80;99.90;;;;;;4180868;28;20086;-60
2023/07/16 03:03:03;;;;;;;6.50;4.35;;;17.80;99.90;;;;;;4179751;28;20076;-62
2023/07/16 03:05:04;;;;;;;8.77;4.00;;;18.00;99.90;;;;;;4179761;28;20058;-60
2023/07/16 03:07:05;;;;;;;6.90;4.40;;;18.10;99.90;;;;;;4180153;28;20071;-62
2023/07/16 03:09:06;;;;;;;6.68;4.30;;;18.30;99.90;;;;;;4180214;28;20106;-62
2023/07/16 03:11:08;;;;;;;7.07;3.90;;;18.50;99.90;;;;;;4180492;28;20045;-61
2023/07/16 03:13:09;;;;;;;4.22;3.83;;;18.70;99.90;;;;;;4179659;28;20182;-60
2023/07/16 03:15:10;;;;;;;4.32;3.35;;;18.80;99.90;;;;;;4180074;28;20041;-61
2023/07/16 03:17:11;;;;;;;4.80;4.32;;;19.00;99.90;;;;;;4179101;28;20032;-60
2023/07/16 03:19:12;;;;;;;8.90;4.05;;;19.20;99.90;;;;;;4180713;28;20079;-61
2023/07/16 03:21:14;;;;;;;5.63;3.92;;;19.10;99.90;;;;;;4179542;28;20564;-64
2023/07/16 03:23:15;;;;;;;4.68;3.97;;;19.30;99.90;;;;;;4180159;28;20067;-62
2023/07/16 03:25:16;;;;;;;4.28;3.55;;;19.50;99.90;;;;;;4178927;28;20041;-61
2023/07/16 03:27:20;;;;;;;10.27;3.80;;;19.60;99.90;;;;;;4180263;28;20079;-61
2023/07/16 03:29:21;;;;;;;5.07;4.30;;;19.90;99.90;;;;;;4178652;28;20049;-61
2023/07/16 03:31:22;;;;;;;6.07;4.30;;;20.30;99.90;;;;;;4179924;28;20447;-61
2023/07/16 03:33:24;;;;;;;4.15;3.75;;;20.40;99.90;;;;;;4178903;28;20033;-63
2023/07/16 03:35:25;;;;;;;6.50;4.50;;;20.80;99.90;;;;;;4180052;28;20033;-70
2023/07/16 03:37:27;;;;;;;6.05;4.57;;;21.00;99.90;;;;;;4179577;28;21456;-66
2023/07/16 03:39:28;;;;;;;8.73;4.88;;;21.00;99.90;;;;;;4179554;28;20473;-61
2023/07/16 03:41:29;;;;;;;7.80;4.57;;;21.10;99.90;;;;;;4161975;28;20033;-62
2023/07/16 03:43:30;;;;;;;8.77;4.72;;;21.10;99.90;;;;;;4179268;28;20074;-62
2023/07/16 03:45:31;;;;;;;5.88;4.05;;;21.20;99.90;;;;;;4179882;28;20459;-61
2023/07/16 03:47:32;;;;;;;4.90;4.00;;;21.40;99.90;;;;;;4178754;28;20052;-62
2023/07/16 03:49:34;;;;;;;7.85;4.30;;;21.60;99.90;;;;;;4180319;28;20050;-70
2023/07/16 03:51:35;;;;;;;6.50;4.03;;;21.80;99.90;;;;;;4178850;28;20315;-61
2023/07/16 03:53:36;;;;;;;6.03;3.75;;;22.10;99.90;;;;;;4179593;28;20044;-61
2023/07/16 03:55:37;;;;;;;5.80;4.05;;;22.20;99.90;;;;;;4178611;28;20385;-61
2023/07/16 03:57:38;;;;;;;6.25;4.53;;;22.60;99.90;;;;;;4179905;28;20075;-63
2023/07/16 03:59:40;;;;;;;6.43;4.28;;;22.80;99.90;;;;;;4178438;28;20071;-62
2023/07/16 04:01:41;;;;;;;10.40;3.92;;;23.00;99.90;;;;;;4161659;28;20088;-70
2023/07/16 04:03:42;;;;;;;5.85;3.95;;;23.10;99.90;;;;;;4178377;28;20028;-62
2023/07/16 04:05:43;;;;;;;6.45;4.20;;;23.20;99.90;;;;;;4179262;28;20118;-61
2023/07/16 04:07:44;;;;;;;3.90;3.50;;;23.30;99.90;;;;;;4179053;28;20492;-62
2023/07/16 04:09:45;;;;;;;6.10;4.65;;;23.60;99.90;;;;;;4179602;28;20028;-63
2023/07/16 04:11:46;;;;;;;9.75;4.60;;;23.80;99.90;;;;;;4179215;28;20053;-61
2023/07/16 04:13:48;;;;;;;6.95;4.43;;;24.00;99.90;;;;;;4178921;28;20135;-61
2023/07/16 04:15:49;;;;;;;7.22;4.18;;;24.20;99.90;;;;;;4179161;28;20409;-60
2023/07/16 04:17:50;;;;;;;6.00;4.40;;;24.50;99.90;;;;;;4178312;28;20078;-60
2023/07/16 04:19:51;;;;;;;5.97;4.50;;;24.50;99.90;;;;;;4179780;28;20476;-60
2023/07/16 04:21:52;;;;;;;9.73;5.03;;;24.60;99.90;;;;;;4178298;28;20033;-62
2023/07/16 04:23:53;;;;;;;8.55;5.03;;;24.80;99.90;;;;;;4179738;28;20033;-62
2023/07/16 04:25:55;;;;;;;8.75;5.35;;;25.10;99.90;;;;;;4178531;28;20029;-62
2023/07/16 04:27:57;;;;;;;10.27;5.25;;;25.40;99.90;;;;;;4179148;28;20095;-61
2023/07/16 04:29:58;;;;;;;9.93;5.70;;;25.70;99.90;;;;;;4178387;28;20090;-61
2023/07/16 04:31:59;;;;;;;10.10;5.63;;;25.60;99.90;;;;;;4179413;28;20033;-61
2023/07/16 04:34:00;;;;;;;7.97;5.28;;;25.30;99.90;;;;;;4177656;28;20075;-68
2023/07/16 04:36:01;;;;;;;13.57;6.57;;;25.00;99.90;;;;;;4178354;28;20053;-62
2023/07/16 04:38:02;;;;;;;9.60;5.13;;;25.00;99.90;;;;;;4178094;28;20416;-61
2023/07/16 04:40:04;;;;;;;10.43;5.72;;;25.20;99.90;;;;;;4178653;28;20609;-62
2023/07/16 04:42:05;;;;;;;11.13;5.70;;;25.50;99.90;;;;;;4178822;28;20892;-60
2023/07/16 04:44:06;;;;;;;12.02;6.35;;;25.40;99.90;;;;;;4178037;28;20049;-61
2023/07/16 04:46:08;;;;;;;8.48;5.13;;;25.40;99.90;;;;;;4178888;28;20091;-61
2023/07/16 04:48:09;;;;;;;9.57;5.70;;;25.50;99.90;;;;;;4177604;28;20088;-61
2023/07/16 04:50:10;;;;;;;13.43;5.78;;;25.50;99.90;;;;;;4178897;28;20488;-61
2023/07/16 04:52:11;;;;;;;10.25;5.82;;;25.90;99.90;;;;;;4177788;28;20389;-62
2023/07/16 04:54:12;;;;;;;10.60;6.03;;;25.70;99.90;;;;;;4178921;28;20025;-63
2023/07/16 04:56:15;;;;;;;9.15;5.35;;;26.20;99.90;;;;;;4177815;28;20455;-64
2023/07/16 04:58:16;;;;;;;13.18;4.97;;;26.80;99.90;;;;;;4161277;28;20033;-62
2023/07/16 05:00:17;;;;;;;12.55;5.93;;;26.80;99.90;;;;;;4177770;28;20036;-70
2023/07/16 05:02:18;;;;;;;10.85;5.85;;;26.70;99.90;;;;;;4178750;28;20539;-64
2023/07/16 05:04:19;;;;;;;15.50;5.72;;;26.90;99.90;;;;;;4177671;28;20033;-62
2023/07/16 05:06:20;;;;;;;9.70;5.40;;;27.00;99.90;;;;;;4178751;28;20033;-61
2023/07/16 05:08:22;;;;;;;13.45;5.90;;;27.00;99.90;;;;;;4159439;28;20141;-61
2023/07/16 05:10:23;;;;;;;12.52;4.95;;;26.90;99.90;;;;;;4178783;28;20472;-61
2023/07/16 05:12:24;;;;;;;10.52;6.10;;;26.90;99.90;;;;;;4178179;28;20526;-61
2023/07/16 05:14:26;;;;;;;16.23;5.57;;;26.80;99.90;;;;;;4177325;28;20090;-61
2023/07/16 05:16:27;;;;;;;10.43;5.15;;;27.60;99.90;;;;;;4176303;28;20071;-68
2023/07/16 05:18:29;;;;;;;13.25;4.35;;;28.40;99.90;;;;;;4176953;28;20033;-67
2023/07/16 05:20:30;;;;;;;7.63;5.00;;;28.80;99.90;;;;;;4178385;28;20035;-61
2023/07/16 05:22:32;;;;;;;5.55;4.88;;;28.70;99.90;;;;;;4159174;28;20114;-71
2023/07/16 05:24:33;;;;;;;13.10;4.72;;;28.10;99.90;;;;;;4177905;28;20074;-61
2023/07/16 05:26:34;;;;;;;9.07;4.53;;;27.70;99.90;;;;;;4176476;28;20692;-62
2023/07/16 05:28:36;;;;;;;11.85;4.35;;;27.70;99.90;;;;;;4177561;28;20029;-61
2023/07/16 05:30:37;;;;;;;8.18;4.30;;;27.70;99.90;;;;;;4176032;28;20049;-62
2023/07/16 05:32:38;;;;;;;7.68;4.35;;;27.80;99.90;;;;;;4176887;28;20130;-61
2023/07/16 05:34:39;;;;;;;9.50;4.00;;;27.80;99.90;;;;;;4175545;28;20126;-66
2023/07/16 05:36:42;;;;;;;12.73;4.43;;;28.20;99.90;;;;;;4177200;28;20044;-61
2023/07/16 05:38:43;;;;;;;10.13;4.07;;;28.50;99.50;;;;;;4176358;28;20122;-61
2023/07/16 05:40:44;;;;;;;10.38;4.43;;;28.90;99.20;;;;;;4178064;28;20079;-68
2023/07/16 05:42:45;;;;;;;6.07;3.97;;;29.50;98.70;;;;;;4176787;28;20021;-62
2023/07/16 05:44:50;;;;;;;9.70;4.35;;;30.20;97.90;;;;;;4177523;28;20150;-69
2023/07/16 05:46:51;;;;;;;11.32;4.00;;;30.60;96.90;;;;;;4177516;28;20102;-62
2023/07/16 05:48:52;;;;;;;12.52;3.92;;;30.50;96.80;;;;;;4176750;28;20025;-62
2023/07/16 05:50:53;;;;;;;6.95;3.55;;;30.20;96.70;;;;;;4159554;28;20547;-62
2023/07/16 05:52:54;;;;;;;5.13;3.60;;;29.80;96.90;;;;;;4176790;28;20563;-61
2023/07/16 05:54:55;;;;;;;10.95;3.65;;;30.20;96.80;;;;;;4177278;28;20092;-62
2023/07/16 05:56:57;;;;;;;5.38;3.75;;;30.90;96.00;;;;;;4175959;28;20049;-64
2023/07/16 05:58:58;;;;;;;9.40;3.65;;;31.00;95.50;;;;;;4159375;28;20045;-63
2023/07/16 06:00:59;;;;;;;7.00;3.20;;;31.50;95.00;;;;;;4175985;28;20436;-63
2023/07/16 06:03:01;;;;;;;12.75;3.72;;;31.30;94.90;;;;;;4175639;28;20094;-63
2023/07/16 06:05:03;;;;;;;10.90;3.30;;;31.10;94.80;;;;;;4175394;28;20046;-61
2023/07/16 06:07:04;;;;;;;11.65;3.92;;;30.80;94.90;;;;;;4177185;28;20033;-60
2023/07/16 06:09:05;;;;;;;9.95;3.88;;;30.70;94.90;;;;;;4175605;28;20106;-62
2023/07/16 06:11:06;;;;;;;7.85;3.65;;;30.30;95.10;;;;;;4177281;28;20094;-61
2023/07/16 06:13:08;;;;;;;7.50;3.95;;;29.70;95.50;;;;;;4175973;28;20049;-60
2023/07/16 06:15:09;;;;;;;11.77;3.95;;;29.00;96.00;;;;;;4176725;28;20496;-61
2023/07/16 06:17:10;;;;;;;7.95;3.50;;;28.40;96.80;;;;;;4176533;28;20096;-62
2023/07/16 06:19:11;;;;;;;9.00;3.97;;;28.20;97.10;;;;;;4176165;28;20045;-63
2023/07/16 06:21:12;;;;;;;8.32;3.60;;;28.40;96.90;;;;;;4176984;28;20041;-62
2023/07/16 06:23:16;;;;;;;11.55;3.58;;;28.10;97.00;;;;;;4175602;28;20547;-65
2023/07/16 06:25:17;;;;;;;4.78;3.08;;;27.90;97.10;;;;;;4177591;28;20480;-61
2023/07/16 06:27:18;;;;;;;5.10;3.00;;;27.80;97.30;;;;;;4175326;28;20025;-61
2023/07/16 06:29:19;;;;;;;8.20;2.95;;;27.10;97.80;;;;;;4176441;28;20037;-60
2023/07/16 06:31:22;;;;;;;6.05;3.58;;;26.80;98.40;;;;;;4176329;28;20574;-60
2023/07/16 06:33:23;;;;;;;7.47;3.22;;;26.80;98.70;;;;;;4176462;28;20090;-61
2023/07/16 06:35:24;;;;;;;6.80;3.67;;;27.40;98.50;;;;;;4175894;28;20385;-59
2023/07/16 06:37:25;;;;;;;5.40;3.60;;;27.80;98.20;;;;;;4176726;28;20049;-60
2023/07/16 06:39:26;;;;;;;6.22;4.13;;;27.40;98.30;;;;;;4176097;28;20033;-60
2023/07/16 06:41:30;;;;;;;5.40;3.13;;;27.00;98.70;;;;;;4177289;28;20171;-60
2023/07/16 06:43:31;;;;;;;5.50;3.63;;;27.10;99.00;;;;;;4175578;28;20436;-59
2023/07/16 06:45:32;;;;;;;5.70;3.72;;;26.80;99.20;;;;;;4177109;28;20025;-60
2023/07/16 06:47:33;;;;;;;4.80;3.10;;;26.50;99.70;;;;;;4176662;28;20029;-60
2023/07/16 06:49:35;;;;;;;4.60;3.08;;;26.50;99.90;;;;;;4176694;28;20515;-60
2023/07/16 06:51:36;;;;;;;3.25;2.95;;;26.40;99.90;;;;;;4176917;28;20095;-60
2023/07/16 06:53:37;;;;;;;6.35;3.50;;;26.40;99.90;;;;;;4176055;28;20087;-62
2023/07/16 06:55:38;;;;;;;4.90;3.72;;;26.40;99.90;;;;;;4177227;28;20778;-62
2023/07/16 06:57:39;;;;;;;6.28;3.15;;;26.40;99.90;;;;;;4176153;28;20441;-61
2023/07/16 06:59:40;;;;;;;6.05;3.50;;;26.60;99.90;;;;;;4177016;28;20106;-62
2023/07/16 07:01:41;;;;;;;4.70;3.45;;;26.50;99.90;;;;;;4175047;28;20037;-62
2023/07/16 07:03:42;;;;;;;5.85;3.75;;;26.80;99.90;;;;;;4177366;28;20020;-61
2023/07/16 07:05:43;;;;;;;5.78;3.65;;;27.00;99.90;;;;;;4176248;28;20098;-61
2023/07/16 07:07:45;;;;;;;3.60;3.20;;;26.80;99.90;;;;;;4177285;28;20045;-62
2023/07/16 07:09:49;;;;;;;5.38;3.13;;;26.60;99.90;;;;;;4174696;28;20095;-60
2023/07/16 07:11:50;;;;;;;8.15;3.65;;;27.00;99.90;;;;;;4176953;28;20059;-61
2023/07/16 07:13:52;;;;;;;3.25;2.95;;;27.20;99.90;;;;;;4175627;28;20041;-63
2023/07/16 07:15:53;;;;;;;4.20;3.53;;;27.30;99.70;;;;;;4173429;28;20106;-61
2023/07/16 07:17:54;;;;;;;5.57;3.72;;;27.40;99.60;;;;;;4160041;28;20079;-62
2023/07/16 07:19:56;;;;;;;6.68;3.35;;;27.10;99.90;;;;;;4162059;28;20046;-60
2023/07/16 07:21:57;;;;;;;4.97;3.17;;;27.00;99.90;;;;;;4177077;28;20029;-62
2023/07/16 07:23:58;;;;;;;7.03;3.83;;;26.80;99.90;;;;;;4175975;28;21283;-62
2023/07/16 07:25:59;;;;;;;6.47;3.90;;;26.80;99.90;;;;;;4176835;28;20069;-64
2023/07/16 07:28:01;;;;;;;7.22;2.92;;;26.90;99.90;;;;;;4175721;28;20068;-61
2023/07/16 07:30:02;;;;;;;7.75;3.70;;;27.20;99.90;;;;;;4176769;28;20033;-62
2023/07/16 07:32:03;;;;;;;6.63;3.20;;;27.50;99.90;;;;;;4174859;28;20052;-63
2023/07/16 07:34:04;;;;;;;4.30;3.28;;;27.70;99.80;;;;;;4176426;28;20061;-61
2023/07/16 07:36:06;;;;;;;5.70;3.53;;;27.80;99.60;;;;;;4177628;28;20025;-61
2023/07/16 07:38:07;;;;;;;6.95;3.63;;;27.70;99.70;;;;;;4180296;28;20025;-63
2023/07/16 07:40:08;;;;;;;8.25;3.55;;;27.60;99.90;;;;;;4179058;28;20558;-62
2023/07/16 07:42:10;;;;;;;6.00;3.08;;;27.80;99.90;;;;;;4180516;28;20037;-62
2023/07/16 07:44:11;;;;;;;8.35;3.28;;;27.90;99.70;;;;;;4179252;28;20106;-62
2023/07/16 07:46:12;;;;;;;4.43;3.33;;;27.70;99.90;;;;;;4180171;28;20461;-61
2023/07/16 07:48:13;;;;;;;4.65;3.05;;;27.70;99.90;;;;;;4178823;28;20024;-64
2023/07/16 07:50:14;;;;;;;5.68;3.45;;;28.10;99.90;;;;;;4179424;28;20045;-61
2023/07/16 07:52:15;;;;;;;4.47;3.05;;;28.20;99.60;;;;;;4179439;28;20029;-63
2023/07/16 07:54:16;;;;;;;6.43;2.95;;;27.90;99.90;;;;;;4179057;28;20041;-63
2023/07/16 07:56:18;;;;;;;8.80;4.07;;;27.80;99.90;;;;;;4180011;28;20848;-62
2023/07/16 07:58:19;;;;;;;6.03;3.55;;;27.90;99.90;;;;;;4178307;28;20041;-61
2023/07/16 08:00:20;;;;;;;5.28;3.05;;;28.00;99.90;;;;;;4177788;28;20044;-61
2023/07/16 08:02:23;;;;;;;4.28;3.10;;;27.80;99.90;;;;;;4159911;28;20443;-61
2023/07/16 08:04:25;;;;;;;3.85;3.47;;;27.70;99.90;;;;;;4170178;28;20033;-65
2023/07/16 08:06:26;;;;;;;5.38;3.58;;;27.90;99.90;;;;;;4162125;28;20071;-62
2023/07/16 08:08:27;;;;;;;4.32;3.10;;;28.20;99.90;;;;;;4163142;28;20088;-65
2023/07/16 08:10:28;;;;;;;5.10;3.45;;;28.20;99.90;;;;;;4160325;28;20091;-63
2023/07/16 08:12:30;;;;;;;6.30;4.30;;;28.10;99.90;;;;;;4162809;28;20049;-66
2023/07/16 08:14:32;;;;;;;5.82;4.20;;;28.30;99.90;;;;;;4162207;28;20037;-60
2023/07/16 08:16:33;;;;;;;4.88;2.92;;;28.30;99.90;;;;;;4163388;28;20025;-62
2023/07/16 08:18:34;;;;;;;4.63;2.85;;;28.50;99.90;;;;;;4162361;28;20536;-60
2023/07/16 08:20:36;;;;;;;4.45;2.95;;;28.40;99.90;;;;;;4162811;28;20037;-61
2023/07/16 08:22:38;;;;;;;3.78;2.83;;;28.40;99.90;;;;;;4177745;28;20485;-63
2023/07/16 08:24:39;;;;;;;3.92;2.65;;;28.50;99.90;;;;;;4162457;28;20103;-62
2023/07/16 08:26:40;;;;;;;5.28;3.47;;;28.70;99.90;;;;;;4162020;28;20536;-61
2023/07/16 08:28:42;;;;;;;5.25;3.08;;;29.00;99.70;;;;;;4162035;28;20029;-62
2023/07/16 08:30:47;;;;;;;2.47;2.30;;;29.40;99.70;;;;;;4162979;28;20029;-62
2023/07/16 08:32:48;;;;;;;2.38;2.17;;;29.90;99.10;;;;;;4161719;28;20091;-62
2023/07/16 08:34:49;;;;;;;5.55;2.95;;;29.70;98.70;;;;;;4162683;28;20053;-64
2023/07/16 08:36:50;;;;;;;4.25;2.88;;;29.40;98.70;;;;;;4161746;28;20037;-62
2023/07/16 08:38:51;;;;;;;4.40;2.95;;;29.20;99.00;;;;;;4178025;28;20029;-62
2023/07/16 08:40:52;;;;;;;4.07;2.58;;;29.40;98.90;;;;;;4160762;28;20095;-66
2023/07/16 08:42:54;;;;;;;3.42;2.65;;;29.50;98.70;;;;;;4162816;28;20021;-62
2023/07/16 08:44:55;;;;;;;3.30;2.83;;;29.70;98.60;;;;;;4161821;28;20742;-63
2023/07/16 08:46:57;;;;;;;3.85;2.78;;;29.50;98.30;;;;;;4177881;28;20083;-64
2023/07/16 08:49:00;;;;;;;3.53;2.60;;;29.30;98.60;;;;;;4161560;28;20425;-62
2023/07/16 08:51:02;;;;;;;2.33;2.13;;;29.50;98.60;;;;;;4162521;28;20025;-63
2023/07/16 08:53:07;;;;;;;2.83;2.33;;;29.50;98.50;;;;;;4161797;28;20441;-70
2023/07/16 08:55:08;;;;;;;4.93;2.47;;;29.70;98.30;;;;;;4161285;28;20049;-63
2023/07/16 08:57:10;;;;;;;4.07;2.53;;;29.40;98.50;;;;;;4162212;28;20618;-63
2023/07/16 08:59:11;;;;;;;3.35;2.38;;;29.40;98.80;;;;;;4161824;28;20091;-64
2023/07/16 09:01:13;;;;;;;2.55;2.17;;;29.40;98.80;;;;;;4162308;28;20513;-63
2023/07/16 09:03:17;;;;;;;2.30;2.10;;;29.30;98.70;;;;;;4160669;28;20037;-62
2023/07/16 09:05:22;;;;;;;2.50;2.30;;;29.40;98.70;;;;;;4161944;28;20136;-65
2023/07/16 09:07:23;;;;;;;2.40;2.20;;;29.40;98.40;;;;;;4161293;28;20033;-63
2023/07/16 09:09:25;;;;;;;4.50;2.53;;;29.40;98.10;;;;;;4162487;28;20099;-61
2023/07/16 09:11:27;;;;;;;5.75;2.17;;;29.40;98.00;;;;;;4160649;28;20437;-61
2023/07/16 09:13:29;;;;;;;5.75;2.30;;;29.40;97.90;;;;;;4162208;28;20448;-62
2023/07/16 09:15:31;;;;;;;5.95;2.50;;;29.50;98.30;;;;;;4161117;28;20038;-65
2023/07/16 09:17:32;;;;;;;3.53;3.15;;;29.50;98.40;;;;;;4162330;28;20470;-63
2023/07/16 09:19:33;;;;;;;6.35;3.20;;;29.70;98.30;;;;;;4160812;28;20033;-62
2023/07/16 09:21:34;;;;;;;5.22;2.42;;;29.90;98.20;;;;;;4161569;28;20052;-61
2023/07/16 09:23:36;;;;;;;5.65;2.22;;;30.00;97.70;;;;;;4160853;28;20155;-61
2023/07/16 09:25:39;;;;;;;4.45;2.38;;;30.00;96.90;;;;;;4160608;28;20045;-61
2023/07/16 09:27:40;;;;;;;3.55;1.80;;;30.20;96.40;;;;;;4160462;28;20083;-62
2023/07/16 09:29:42;;;;;;;2.72;1.90;;;30.30;95.70;;;;;;4161173;28;20033;-61
2023/07/16 09:32:12;;;;;;;1.95;1.85;;;30.50;95.10;;;;;;4161234;28;20037;-60
2023/07/16 09:34:13;;;;;;;4.57;1.60;;;30.70;94.10;;;;;;4152330;28;20556;-63
2023/07/16 09:36:23;;;;;;;1.60;1.50;;;30.80;93.90;;;;;;4161120;28;20131;-62
2023/07/16 09:38:26;;;;;;;7.47;2.78;;;30.70;92.90;;;;;;4161204;28;20087;-64
2023/07/16 09:40:29;;;;;;;2.45;2.00;;;30.60;93.60;;;;;;4161063;28;20103;-61
2023/07/16 09:42:30;;;;;;;3.70;1.95;;;30.70;93.80;;;;;;4143016;28;20576;-63
2023/07/16 09:44:31;;;;;;;6.80;2.20;;;30.80;93.80;;;;;;4161013;28;20045;-62
2023/07/16 09:46:32;;;;;;;3.60;2.58;;;30.80;93.90;;;;;;4160667;28;20095;-61
2023/07/16 09:48:34;;;;;;;3.17;2.20;;;30.60;94.50;;;;;;4161754;28;20067;-60
2023/07/16 09:50:36;;;;;;;13.93;7.50;;;30.50;94.90;;;;;;4142457;28;20111;-61
2023/07/16 09:52:37;;;;;;;2.40;1.98;;;30.70;95.10;;;;;;4161502;28;20435;-63
2023/07/16 09:54:39;;;;;;;5.57;2.90;;;30.50;95.10;;;;;;4159975;28;20069;-61
2023/07/16 09:56:58;;;;;;;4.03;2.47;;;30.40;95.30;;;;;;4161400;28;20103;-60
2023/07/16 09:59:01;;;;;;;5.57;2.38;;;30.40;95.70;;;;;;4159088;28;20084;-61
2023/07/16 10:01:03;;;;;;;4.18;2.22;;;30.60;95.80;;;;;;4164607;28;20144;-61
2023/07/16 10:03:07;;;;;;;3.00;2.53;;;30.50;95.50;;;;;;4176501;28;20376;-61
2023/07/16 10:05:26;;;;;;;2.55;2.10;;;30.50;95.60;;;;;;4177630;28;20086;-67
2023/07/16 10:07:27;;;;;;;2.22;2.10;;;30.30;95.80;;;;;;4166194;28;20079;-61
2023/07/16 10:09:32;;;;;;;2.90;2.50;;;30.30;95.60;;;;;;4143169;28;20025;-61
2023/07/16 10:11:38;;;;;;;2.65;2.20;;;30.40;95.80;;;;;;4160116;28;20064;-61
2023/07/16 10:13:39;;;;;;;4.65;2.40;;;30.60;95.70;;;;;;4160734;28;20433;-60
2023/07/16 10:15:53;;;;;;;2.30;2.10;;;30.60;95.50;;;;;;4159359;28;20095;-62
2023/07/16 10:17:55;;;;;;;3.53;1.90;;;30.40;95.50;;;;;;4161631;28;20022;-61
2023/07/16 10:20:09;;;;;;;3.47;2.25;;;30.40;95.60;;;;;;4168164;28;20029;-62
2023/07/16 10:22:11;;;;;;;3.75;2.40;;;30.40;95.60;;;;;;4159154;28;20045;-62
2023/07/16 10:24:18;;;;;;;2.17;1.98;;;30.40;95.60;;;;;;4176083;28;20040;-62
2023/07/16 10:26:19;;;;;;;3.35;2.28;;;30.50;95.60;;;;;;4176629;28;20044;-62
2023/07/16 10:28:20;;;;;;;3.67;2.17;;;30.40;95.50;;;;;;4174955;28;20033;-58
2023/07/16 10:30:22;;;;;;;2.33;2.13;;;30.40;95.60;;;;;;4176014;28;20037;-61
2023/07/16 10:32:28;;;;;;;2.67;2.47;;;30.30;95.60;;;;;;4175433;28;20094;-61
2023/07/16 10:34:29;;;;;;;2.45;2.25;;;30.20;95.60;;;;;;4176567;28;20462;-61